This is the latest recevied weather packets stored in our database for station/object AC2VK-1. If no packets are shown the sender has not sent any weather packets the latest 10 day(s).
| Time | Temp. | Humidity | Pressure | Rain* | Wind** | Luminosity | Snow |
|---|---|---|---|---|---|---|---|
| 1777650568 | 17.22° C | 56% | 1017 hPa | 0 mm | - | - | - |
| 1777649968 | 16.67° C | 57% | 1017.1 hPa | 0 mm | - | - | - |
| 1777649368 | 16.67° C | 59% | 1017.3 hPa | 0 mm | - | - | - |
| 1777648768 | 16.11° C | 60% | 1017.4 hPa | 0 mm | - | - | - |
| 1777648168 | 16.67° C | 58% | 1017.5 hPa | 0 mm | - | - | - |
| 1777647568 | 16.11° C | 60% | 1017.4 hPa | 0 mm | - | - | - |
| 1777646968 | 15.56° C | 59% | 1017.4 hPa | 0 mm | - | - | - |
| 1777646369 | 15° C | 63% | 1017.4 hPa | 0 mm | - | - | - |
| 1777645769 | 15.56° C | 63% | 1017.3 hPa | 0 mm | - | - | - |
| 1777645169 | 15° C | 64% | 1017.1 hPa | 0 mm | - | - | - |
| 1777644569 | 15.56° C | 61% | 1016.9 hPa | 0 mm | - | - | - |
| 1777643969 | 14.44° C | 64% | 1016.9 hPa | 0 mm | - | - | - |
| 1777643368 | 13.89° C | 66% | 1016.9 hPa | 0 mm | - | - | - |
| 1777642769 | 14.44° C | 67% | 1017 hPa | 0 mm | - | - | - |
| 1777642169 | 13.89° C | 69% | 1017.2 hPa | 0 mm | - | - | - |
| 1777641569 | 13.33° C | 70% | 1017.3 hPa | 0 mm | - | - | - |
| 1777640969 | 12.22° C | 73% | 1017.1 hPa | 0 mm | - | - | - |
| 1777640369 | 11.67° C | 74% | 1017 hPa | 0 mm | - | - | - |
| 1777639769 | 11.11° C | 75% | 1017.1 hPa | 0 mm | - | - | - |
| 1777639169 | 11.11° C | 76% | 1017 hPa | 0 mm | - | - | - |
| 1777638569 | 10.56° C | 76% | 1017 hPa | 0 mm | - | - | - |
| 1777637969 | 10.56° C | 78% | 1016.8 hPa | 0 mm | - | - | - |
| 1777637369 | 10° C | 79% | 1016.8 hPa | 0 mm | - | - | - |
| 1777636769 | 10° C | 78% | 1016.7 hPa | 0 mm | - | - | - |
| 1777636169 | 9.44° C | 79% | 1016.6 hPa | 0 mm | - | - | - |
* Rain latest hour (hover to see other rain measurements)
** Current wind speed in m/s (hover to see current wind gust speed)